sensor_id;sensor_type;location;lat;lon;timestamp;noise_LAeq;noise_LA_min;noise_LA_max;noise_LA01;noise_LA95
67398;Laerm;57728;50.448;18.824;2023-06-22T00:01:38;34.41;32.91;36.37;;
67398;Laerm;57728;50.448;18.824;2023-06-22T00:03:39;34.43;32.98;39.83;;
67398;Laerm;57728;50.448;18.824;2023-06-22T00:05:41;34.42;33.05;36.54;;
67398;Laerm;57728;50.448;18.824;2023-06-22T00:07:43;34.41;33.05;39.55;;
67398;Laerm;57728;50.448;18.824;2023-06-22T00:09:44;34.42;33.13;39.65;;
67398;Laerm;57728;50.448;18.824;2023-06-22T00:11:45;34.43;32.95;41.17;;
67398;Laerm;57728;50.448;18.824;2023-06-22T00:13:47;34.43;32.90;38.38;;
67398;Laerm;57728;50.448;18.824;2023-06-22T00:15:49;34.51;33.03;36.59;;
67398;Laerm;57728;50.448;18.824;2023-06-22T00:17:51;35.08;33.18;41.18;;
67398;Laerm;57728;50.448;18.824;2023-06-22T00:19:53;34.40;33.05;36.23;;
67398;Laerm;57728;50.448;18.824;2023-06-22T00:21:56;34.40;33.11;36.30;;
67398;Laerm;57728;50.448;18.824;2023-06-22T00:24:01;34.41;33.04;36.20;;
67398;Laerm;57728;50.448;18.824;2023-06-22T00:26:02;34.42;32.98;36.81;;
67398;Laerm;57728;50.448;18.824;2023-06-22T00:28:04;34.41;32.97;36.68;;
67398;Laerm;57728;50.448;18.824;2023-06-22T00:30:06;34.40;33.12;36.23;;
67398;Laerm;57728;50.448;18.824;2023-06-22T00:32:08;35.21;33.09;53.24;;
67398;Laerm;57728;50.448;18.824;2023-06-22T00:34:09;34.40;33.00;36.33;;
67398;Laerm;57728;50.448;18.824;2023-06-22T00:36:10;34.40;32.81;36.52;;
67398;Laerm;57728;50.448;18.824;2023-06-22T00:38:14;34.44;32.94;36.78;;
67398;Laerm;57728;50.448;18.824;2023-06-22T00:40:17;34.41;33.06;36.39;;
67398;Laerm;57728;50.448;18.824;2023-06-22T00:42:23;34.52;33.04;36.22;;
67398;Laerm;57728;50.448;18.824;2023-06-22T00:44:25;34.42;32.93;36.19;;
67398;Laerm;57728;50.448;18.824;2023-06-22T00:46:26;34.91;33.12;39.11;;
67398;Laerm;57728;50.448;18.824;2023-06-22T00:48:27;34.55;33.05;37.97;;
67398;Laerm;57728;50.448;18.824;2023-06-22T00:50:33;34.40;32.98;36.46;;
67398;Laerm;57728;50.448;18.824;2023-06-22T00:52:36;34.41;33.00;36.34;;
67398;Laerm;57728;50.448;18.824;2023-06-22T00:54:37;34.40;33.04;36.71;;
67398;Laerm;57728;50.448;18.824;2023-06-22T00:56:41;34.41;32.95;36.12;;
67398;Laerm;57728;50.448;18.824;2023-06-22T00:58:43;34.40;33.02;36.55;;
67398;Laerm;57728;50.448;18.824;2023-06-22T01:00:44;34.45;33.13;36.52;;
67398;Laerm;57728;50.448;18.824;2023-06-22T01:02:46;34.39;32.97;36.24;;
67398;Laerm;57728;50.448;18.824;2023-06-22T01:04:48;34.40;33.00;36.90;;
67398;Laerm;57728;50.448;18.824;2023-06-22T01:07:13;34.40;32.97;37.00;;
67398;Laerm;57728;50.448;18.824;2023-06-22T01:09:32;34.39;32.97;36.63;;
67398;Laerm;57728;50.448;18.824;2023-06-22T01:11:45;34.39;33.02;36.52;;
67398;Laerm;57728;50.448;18.824;2023-06-22T01:16:51;34.39;32.67;36.84;;
67398;Laerm;57728;50.448;18.824;2023-06-22T01:18:57;34.39;33.03;36.15;;
67398;Laerm;57728;50.448;18.824;2023-06-22T01:21:06;34.40;33.02;36.80;;
67398;Laerm;57728;50.448;18.824;2023-06-22T01:23:33;34.40;32.97;36.85;;
67398;Laerm;57728;50.448;18.824;2023-06-22T01:26:20;34.39;32.46;36.39;;
67398;Laerm;57728;50.448;18.824;2023-06-22T01:28:53;34.40;33.06;36.68;;
67398;Laerm;57728;50.448;18.824;2023-06-22T01:30:57;34.40;32.97;35.91;;
67398;Laerm;57728;50.448;18.824;2023-06-22T01:33:13;34.41;33.03;39.76;;
67398;Laerm;57728;50.448;18.824;2023-06-22T01:35:18;34.40;33.00;36.86;;
67398;Laerm;57728;50.448;18.824;2023-06-22T01:37:21;34.39;33.05;36.53;;
67398;Laerm;57728;50.448;18.824;2023-06-22T01:39:27;34.40;33.24;36.69;;
67398;Laerm;57728;50.448;18.824;2023-06-22T01:41:34;34.39;33.00;36.15;;
67398;Laerm;57728;50.448;18.824;2023-06-22T01:43:37;34.72;33.05;36.96;;
67398;Laerm;57728;50.448;18.824;2023-06-22T01:45:38;34.43;32.99;36.32;;
67398;Laerm;57728;50.448;18.824;2023-06-22T01:47:41;34.43;33.09;36.98;;
67398;Laerm;57728;50.448;18.824;2023-06-22T01:49:45;34.57;33.06;37.79;;
67398;Laerm;57728;50.448;18.824;2023-06-22T01:51:46;34.51;33.03;37.64;;
67398;Laerm;57728;50.448;18.824;2023-06-22T01:53:48;34.60;33.12;44.88;;
67398;Laerm;57728;50.448;18.824;2023-06-22T01:55:50;34.55;33.16;41.26;;
67398;Laerm;57728;50.448;18.824;2023-06-22T01:57:51;34.52;33.00;37.17;;
67398;Laerm;57728;50.448;18.824;2023-06-22T02:00:04;34.48;32.91;44.05;;
67398;Laerm;57728;50.448;18.824;2023-06-22T02:02:20;34.56;33.05;44.15;;
67398;Laerm;57728;50.448;18.824;2023-06-22T02:04:48;34.55;33.08;41.52;;
67398;Laerm;57728;50.448;18.824;2023-06-22T02:06:59;34.47;33.02;36.68;;
67398;Laerm;57728;50.448;18.824;2023-06-22T02:09:07;34.54;32.96;47.94;;
67398;Laerm;57728;50.448;18.824;2023-06-22T02:11:13;34.52;33.09;47.38;;
67398;Laerm;57728;50.448;18.824;2023-06-22T02:13:17;34.55;33.06;36.60;;
67398;Laerm;57728;50.448;18.824;2023-06-22T02:15:20;34.64;33.02;45.60;;
67398;Laerm;57728;50.448;18.824;2023-06-22T02:17:29;34.48;33.06;36.15;;
67398;Laerm;57728;50.448;18.824;2023-06-22T02:19:41;34.62;33.16;38.39;;
67398;Laerm;57728;50.448;18.824;2023-06-22T02:21:42;34.52;33.11;37.45;;
67398;Laerm;57728;50.448;18.824;2023-06-22T02:23:45;34.52;33.15;38.02;;
67398;Laerm;57728;50.448;18.824;2023-06-22T02:25:47;34.49;32.90;37.05;;
67398;Laerm;57728;50.448;18.824;2023-06-22T02:27:48;34.50;32.68;37.19;;
67398;Laerm;57728;50.448;18.824;2023-06-22T02:29:51;34.58;33.15;44.91;;
67398;Laerm;57728;50.448;18.824;2023-06-22T02:31:54;34.59;33.18;40.85;;
67398;Laerm;57728;50.448;18.824;2023-06-22T02:33:58;35.03;33.24;39.13;;
67398;Laerm;57728;50.448;18.824;2023-06-22T02:35:59;34.68;33.21;45.53;;
67398;Laerm;57728;50.448;18.824;2023-06-22T02:38:03;34.61;33.04;40.79;;
67398;Laerm;57728;50.448;18.824;2023-06-22T02:40:08;34.61;33.09;37.60;;
67398;Laerm;57728;50.448;18.824;2023-06-22T02:42:09;34.89;33.23;48.32;;
67398;Laerm;57728;50.448;18.824;2023-06-22T02:44:15;34.66;33.18;37.59;;
67398;Laerm;57728;50.448;18.824;2023-06-22T02:46:16;34.56;33.15;41.70;;
67398;Laerm;57728;50.448;18.824;2023-06-22T02:48:18;34.64;33.15;39.73;;
67398;Laerm;57728;50.448;18.824;2023-06-22T02:50:20;34.54;33.23;39.40;;
67398;Laerm;57728;50.448;18.824;2023-06-22T02:52:22;34.56;33.13;40.15;;
67398;Laerm;57728;50.448;18.824;2023-06-22T02:54:23;34.48;33.18;36.86;;
67398;Laerm;57728;50.448;18.824;2023-06-22T02:56:28;34.50;32.91;40.28;;
67398;Laerm;57728;50.448;18.824;2023-06-22T02:58:34;34.50;33.07;38.09;;
67398;Laerm;57728;50.448;18.824;2023-06-22T03:00:40;35.60;33.14;52.01;;
67398;Laerm;57728;50.448;18.824;2023-06-22T03:02:48;34.75;33.05;42.32;;
67398;Laerm;57728;50.448;18.824;2023-06-22T03:04:49;34.58;33.05;44.74;;
67398;Laerm;57728;50.448;18.824;2023-06-22T03:06:50;34.50;33.23;36.51;;
67398;Laerm;57728;50.448;18.824;2023-06-22T03:08:53;34.55;32.87;38.07;;
67398;Laerm;57728;50.448;18.824;2023-06-22T03:10:54;34.48;33.17;38.06;;
67398;Laerm;57728;50.448;18.824;2023-06-22T03:12:55;34.66;33.17;38.93;;
67398;Laerm;57728;50.448;18.824;2023-06-22T03:14:57;34.59;33.13;47.45;;
67398;Laerm;57728;50.448;18.824;2023-06-22T03:16:59;34.90;33.02;41.43;;
67398;Laerm;57728;50.448;18.824;2023-06-22T03:19:03;34.86;33.08;40.81;;
67398;Laerm;57728;50.448;18.824;2023-06-22T03:21:05;34.84;33.13;49.18;;
67398;Laerm;57728;50.448;18.824;2023-06-22T03:23:06;34.76;33.09;38.53;;
67398;Laerm;57728;50.448;18.824;2023-06-22T03:25:09;34.64;33.09;39.15;;
67398;Laerm;57728;50.448;18.824;2023-06-22T03:27:20;34.74;33.14;39.06;;
67398;Laerm;57728;50.448;18.824;2023-06-22T03:29:21;34.95;32.94;43.43;;
67398;Laerm;57728;50.448;18.824;2023-06-22T03:31:26;34.91;33.35;44.29;;
67398;Laerm;57728;50.448;18.824;2023-06-22T03:33:28;35.07;33.29;43.07;;
67398;Laerm;57728;50.448;18.824;2023-06-22T03:35:32;35.78;33.15;49.36;;
67398;Laerm;57728;50.448;18.824;2023-06-22T03:37:33;34.81;33.28;41.17;;
67398;Laerm;57728;50.448;18.824;2023-06-22T03:39:36;34.70;33.37;38.05;;
67398;Laerm;57728;50.448;18.824;2023-06-22T03:41:37;34.83;33.21;42.18;;
67398;Laerm;57728;50.448;18.824;2023-06-22T03:43:39;34.90;33.30;45.71;;
67398;Laerm;57728;50.448;18.824;2023-06-22T03:45:41;34.74;33.28;40.07;;
67398;Laerm;57728;50.448;18.824;2023-06-22T03:47:42;35.90;32.92;49.15;;
67398;Laerm;57728;50.448;18.824;2023-06-22T03:49:43;36.69;33.11;47.11;;
67398;Laerm;57728;50.448;18.824;2023-06-22T03:51:45;35.38;33.36;47.85;;
67398;Laerm;57728;50.448;18.824;2023-06-22T03:53:46;34.61;33.27;43.74;;
67398;Laerm;57728;50.448;18.824;2023-06-22T03:55:51;34.70;33.19;47.87;;
67398;Laerm;57728;50.448;18.824;2023-06-22T03:57:54;34.74;33.02;45.02;;
67398;Laerm;57728;50.448;18.824;2023-06-22T03:59:58;34.86;32.78;44.32;;
67398;Laerm;57728;50.448;18.824;2023-06-22T04:01:59;34.94;33.14;51.79;;
67398;Laerm;57728;50.448;18.824;2023-06-22T04:04:01;37.21;33.48;44.99;;
67398;Laerm;57728;50.448;18.824;2023-06-22T04:06:02;35.56;33.06;49.76;;
67398;Laerm;57728;50.448;18.824;2023-06-22T04:08:04;34.85;33.26;41.30;;
67398;Laerm;57728;50.448;18.824;2023-06-22T04:10:06;34.83;32.86;42.02;;
67398;Laerm;57728;50.448;18.824;2023-06-22T04:12:07;35.13;33.23;44.84;;
67398;Laerm;57728;50.448;18.824;2023-06-22T04:14:09;34.72;33.25;45.28;;
67398;Laerm;57728;50.448;18.824;2023-06-22T04:16:10;34.70;33.21;41.11;;
67398;Laerm;57728;50.448;18.824;2023-06-22T04:18:11;34.79;33.11;46.28;;
67398;Laerm;57728;50.448;18.824;2023-06-22T04:20:16;34.77;33.04;39.62;;
67398;Laerm;57728;50.448;18.824;2023-06-22T04:22:18;34.97;33.11;43.34;;
67398;Laerm;57728;50.448;18.824;2023-06-22T04:24:19;34.65;33.19;37.74;;
67398;Laerm;57728;50.448;18.824;2023-06-22T04:26:20;35.84;32.93;54.59;;
67398;Laerm;57728;50.448;18.824;2023-06-22T04:28:22;36.32;33.36;49.33;;
67398;Laerm;57728;50.448;18.824;2023-06-22T04:30:24;34.77;33.27;41.97;;
67398;Laerm;57728;50.448;18.824;2023-06-22T04:32:25;35.44;33.30;48.29;;
67398;Laerm;57728;50.448;18.824;2023-06-22T04:34:27;35.19;33.07;44.96;;
67398;Laerm;57728;50.448;18.824;2023-06-22T04:36:28;34.96;33.14;48.55;;
67398;Laerm;57728;50.448;18.824;2023-06-22T04:38:37;34.85;33.21;44.28;;
67398;Laerm;57728;50.448;18.824;2023-06-22T04:40:40;34.67;33.13;38.78;;
67398;Laerm;57728;50.448;18.824;2023-06-22T04:42:41;34.70;33.25;38.42;;
67398;Laerm;57728;50.448;18.824;2023-06-22T04:44:53;34.77;32.98;47.15;;
67398;Laerm;57728;50.448;18.824;2023-06-22T04:47:01;34.78;33.26;38.68;;
67398;Laerm;57728;50.448;18.824;2023-06-22T04:49:08;34.73;33.19;48.15;;
67398;Laerm;57728;50.448;18.824;2023-06-22T04:51:12;35.26;33.08;43.78;;
67398;Laerm;57728;50.448;18.824;2023-06-22T04:53:14;34.92;33.22;45.78;;
67398;Laerm;57728;50.448;18.824;2023-06-22T04:55:15;34.77;33.04;38.32;;
67398;Laerm;57728;50.448;18.824;2023-06-22T04:57:19;34.82;33.30;40.55;;
67398;Laerm;57728;50.448;18.824;2023-06-22T04:59:20;34.77;33.21;42.62;;
67398;Laerm;57728;50.448;18.824;2023-06-22T05:01:22;34.94;33.16;39.90;;
67398;Laerm;57728;50.448;18.824;2023-06-22T05:03:25;34.72;33.11;47.39;;
67398;Laerm;57728;50.448;18.824;2023-06-22T05:05:27;34.61;33.20;42.10;;
67398;Laerm;57728;50.448;18.824;2023-06-22T05:07:28;34.61;33.20;41.15;;
67398;Laerm;57728;50.448;18.824;2023-06-22T05:09:30;34.92;33.20;42.09;;
67398;Laerm;57728;50.448;18.824;2023-06-22T05:11:32;35.23;33.27;46.64;;
67398;Laerm;57728;50.448;18.824;2023-06-22T05:13:33;36.58;33.88;46.09;;
67398;Laerm;57728;50.448;18.824;2023-06-22T05:15:34;36.03;34.13;42.99;;
67398;Laerm;57728;50.448;18.824;2023-06-22T05:17:41;36.85;34.27;41.58;;
67398;Laerm;57728;50.448;18.824;2023-06-22T05:19:48;36.85;34.13;43.16;;
67398;Laerm;57728;50.448;18.824;2023-06-22T05:21:49;38.46;34.48;44.20;;
67398;Laerm;57728;50.448;18.824;2023-06-22T05:23:53;36.59;34.24;40.94;;
67398;Laerm;57728;50.448;18.824;2023-06-22T05:25:54;37.34;33.89;45.35;;
67398;Laerm;57728;50.448;18.824;2023-06-22T05:27:58;37.93;33.72;44.17;;
67398;Laerm;57728;50.448;18.824;2023-06-22T05:30:00;36.24;34.00;43.46;;
67398;Laerm;57728;50.448;18.824;2023-06-22T05:32:01;35.99;33.89;41.42;;
67398;Laerm;57728;50.448;18.824;2023-06-22T05:34:03;35.45;33.65;46.66;;
67398;Laerm;57728;50.448;18.824;2023-06-22T05:36:05;36.29;33.62;42.65;;
67398;Laerm;57728;50.448;18.824;2023-06-22T05:38:06;36.54;34.23;40.60;;
67398;Laerm;57728;50.448;18.824;2023-06-22T05:40:08;36.83;34.23;40.73;;
67398;Laerm;57728;50.448;18.824;2023-06-22T05:42:11;36.12;34.03;40.95;;
67398;Laerm;57728;50.448;18.824;2023-06-22T05:44:13;36.47;34.51;39.57;;
67398;Laerm;57728;50.448;18.824;2023-06-22T05:46:14;36.44;34.02;50.11;;
67398;Laerm;57728;50.448;18.824;2023-06-22T05:48:16;37.25;34.19;46.36;;
67398;Laerm;57728;50.448;18.824;2023-06-22T05:50:17;35.43;33.74;42.90;;
67398;Laerm;57728;50.448;18.824;2023-06-22T05:52:18;35.84;33.97;43.57;;
67398;Laerm;57728;50.448;18.824;2023-06-22T05:54:20;36.64;33.68;45.12;;
67398;Laerm;57728;50.448;18.824;2023-06-22T05:56:21;36.05;33.66;42.39;;
67398;Laerm;57728;50.448;18.824;2023-06-22T05:58:22;36.06;33.71;44.91;;
67398;Laerm;57728;50.448;18.824;2023-06-22T06:00:24;35.78;33.29;42.67;;
67398;Laerm;57728;50.448;18.824;2023-06-22T06:02:26;35.21;33.42;47.66;;
67398;Laerm;57728;50.448;18.824;2023-06-22T06:04:27;35.71;33.58;40.30;;
67398;Laerm;57728;50.448;18.824;2023-06-22T06:06:29;36.54;34.32;40.30;;
67398;Laerm;57728;50.448;18.824;2023-06-22T06:08:30;37.84;34.36;47.33;;
67398;Laerm;57728;50.448;18.824;2023-06-22T06:10:32;38.08;34.26;57.03;;
67398;Laerm;57728;50.448;18.824;2023-06-22T06:12:35;38.57;33.11;44.03;;
67398;Laerm;57728;50.448;18.824;2023-06-22T06:14:36;35.95;33.13;45.12;;
67398;Laerm;57728;50.448;18.824;2023-06-22T06:16:40;34.58;33.29;39.04;;
67398;Laerm;57728;50.448;18.824;2023-06-22T06:18:42;34.91;32.94;38.86;;
67398;Laerm;57728;50.448;18.824;2023-06-22T06:20:43;35.25;33.39;40.48;;
67398;Laerm;57728;50.448;18.824;2023-06-22T06:22:44;36.81;33.82;41.10;;
67398;Laerm;57728;50.448;18.824;2023-06-22T06:24:47;35.83;33.41;41.30;;
67398;Laerm;57728;50.448;18.824;2023-06-22T06:26:48;35.39;33.52;47.98;;
67398;Laerm;57728;50.448;18.824;2023-06-22T06:28:49;35.77;33.68;40.07;;
67398;Laerm;57728;50.448;18.824;2023-06-22T06:30:51;36.54;33.56;48.72;;
67398;Laerm;57728;50.448;18.824;2023-06-22T06:32:52;34.80;33.09;40.87;;
67398;Laerm;57728;50.448;18.824;2023-06-22T06:34:55;35.31;33.39;42.98;;
67398;Laerm;57728;50.448;18.824;2023-06-22T06:36:57;35.08;33.40;40.64;;
67398;Laerm;57728;50.448;18.824;2023-06-22T06:39:00;35.07;33.30;41.08;;
67398;Laerm;57728;50.448;18.824;2023-06-22T06:41:01;35.23;33.25;44.25;;
67398;Laerm;57728;50.448;18.824;2023-06-22T06:43:03;35.45;33.63;45.65;;
67398;Laerm;57728;50.448;18.824;2023-06-22T06:45:05;35.86;33.83;46.80;;
67398;Laerm;57728;50.448;18.824;2023-06-22T06:47:06;36.32;34.01;47.07;;
67398;Laerm;57728;50.448;18.824;2023-06-22T06:49:08;36.89;34.36;42.69;;
67398;Laerm;57728;50.448;18.824;2023-06-22T06:51:09;37.51;34.57;45.24;;
67398;Laerm;57728;50.448;18.824;2023-06-22T06:53:10;36.88;33.88;41.52;;
67398;Laerm;57728;50.448;18.824;2023-06-22T06:55:12;36.56;33.63;42.05;;
67398;Laerm;57728;50.448;18.824;2023-06-22T06:57:14;38.37;33.53;49.73;;
67398;Laerm;57728;50.448;18.824;2023-06-22T06:59:16;36.16;33.50;44.53;;
67398;Laerm;57728;50.448;18.824;2023-06-22T07:01:18;35.80;33.56;40.51;;
67398;Laerm;57728;50.448;18.824;2023-06-22T07:03:20;35.59;33.33;40.30;;
67398;Laerm;57728;50.448;18.824;2023-06-22T07:05:21;35.36;33.25;43.61;;
67398;Laerm;57728;50.448;18.824;2023-06-22T07:07:23;35.34;33.25;43.13;;
67398;Laerm;57728;50.448;18.824;2023-06-22T07:09:25;35.66;33.24;44.84;;
67398;Laerm;57728;50.448;18.824;2023-06-22T07:11:26;37.81;33.28;50.66;;
67398;Laerm;57728;50.448;18.824;2023-06-22T07:13:28;36.70;33.28;52.01;;
67398;Laerm;57728;50.448;18.824;2023-06-22T07:15:29;35.27;33.43;44.47;;
67398;Laerm;57728;50.448;18.824;2023-06-22T07:17:31;35.65;33.15;54.67;;
67398;Laerm;57728;50.448;18.824;2023-06-22T07:19:33;35.10;33.12;43.06;;
67398;Laerm;57728;50.448;18.824;2023-06-22T07:21:34;34.92;32.97;44.88;;
67398;Laerm;57728;50.448;18.824;2023-06-22T07:23:35;34.77;33.07;48.13;;
67398;Laerm;57728;50.448;18.824;2023-06-22T07:25:37;37.47;33.23;51.50;;
67398;Laerm;57728;50.448;18.824;2023-06-22T07:27:46;34.81;33.01;44.53;;
67398;Laerm;57728;50.448;18.824;2023-06-22T07:29:48;34.57;33.02;42.42;;
67398;Laerm;57728;50.448;18.824;2023-06-22T07:31:50;34.40;33.01;36.59;;
67398;Laerm;57728;50.448;18.824;2023-06-22T07:33:56;34.83;33.00;44.91;;
67398;Laerm;57728;50.448;18.824;2023-06-22T07:35:58;34.62;33.08;41.45;;
67398;Laerm;57728;50.448;18.824;2023-06-22T07:38:00;34.52;33.08;39.40;;
67398;Laerm;57728;50.448;18.824;2023-06-22T07:40:01;34.38;33.04;38.71;;
67398;Laerm;57728;50.448;18.824;2023-06-22T07:42:05;34.59;32.88;40.11;;
67398;Laerm;57728;50.448;18.824;2023-06-22T07:44:07;34.52;32.91;39.63;;
67398;Laerm;57728;50.448;18.824;2023-06-22T07:46:08;34.67;33.17;43.00;;
67398;Laerm;57728;50.448;18.824;2023-06-22T07:48:09;34.47;33.04;39.69;;
67398;Laerm;57728;50.448;18.824;2023-06-22T07:50:11;34.43;32.86;38.95;;
67398;Laerm;57728;50.448;18.824;2023-06-22T07:52:13;34.42;32.72;39.10;;
67398;Laerm;57728;50.448;18.824;2023-06-22T07:54:14;34.67;33.15;48.18;;
67398;Laerm;57728;50.448;18.824;2023-06-22T07:56:17;35.21;32.96;48.23;;
67398;Laerm;57728;50.448;18.824;2023-06-22T07:58:20;34.64;33.06;41.40;;
67398;Laerm;57728;50.448;18.824;2023-06-22T08:00:21;34.60;32.68;43.62;;
67398;Laerm;57728;50.448;18.824;2023-06-22T08:02:23;34.82;33.06;42.87;;
67398;Laerm;57728;50.448;18.824;2023-06-22T08:04:24;36.51;33.13;40.58;;
67398;Laerm;57728;50.448;18.824;2023-06-22T08:06:25;35.21;33.59;43.28;;
67398;Laerm;57728;50.448;18.824;2023-06-22T08:08:27;35.59;33.39;40.62;;
67398;Laerm;57728;50.448;18.824;2023-06-22T08:10:28;37.79;33.49;52.96;;
67398;Laerm;57728;50.448;18.824;2023-06-22T08:12:30;35.60;33.67;45.47;;
67398;Laerm;57728;50.448;18.824;2023-06-22T08:14:32;35.46;33.32;46.93;;
67398;Laerm;57728;50.448;18.824;2023-06-22T08:16:33;35.66;33.28;51.51;;
67398;Laerm;57728;50.448;18.824;2023-06-22T08:18:34;34.90;33.04;47.26;;
67398;Laerm;57728;50.448;18.824;2023-06-22T08:20:37;34.82;33.16;38.81;;
67398;Laerm;57728;50.448;18.824;2023-06-22T08:22:41;34.81;33.27;40.51;;
67398;Laerm;57728;50.448;18.824;2023-06-22T08:24:42;35.83;33.60;44.11;;
67398;Laerm;57728;50.448;18.824;2023-06-22T08:26:45;38.30;33.70;51.36;;
67398;Laerm;57728;50.448;18.824;2023-06-22T08:28:46;36.72;33.67;49.34;;
67398;Laerm;57728;50.448;18.824;2023-06-22T08:30:48;35.54;33.32;39.16;;
67398;Laerm;57728;50.448;18.824;2023-06-22T08:32:49;35.38;33.65;42.75;;
67398;Laerm;57728;50.448;18.824;2023-06-22T08:34:51;35.74;33.42;42.15;;
67398;Laerm;57728;50.448;18.824;2023-06-22T08:36:52;36.17;33.47;49.94;;
67398;Laerm;57728;50.448;18.824;2023-06-22T08:38:54;36.23;33.81;47.00;;
67398;Laerm;57728;50.448;18.824;2023-06-22T08:40:58;36.00;33.35;56.00;;
67398;Laerm;57728;50.448;18.824;2023-06-22T08:43:00;35.57;33.15;49.61;;
67398;Laerm;57728;50.448;18.824;2023-06-22T08:45:03;35.52;33.14;49.21;;
67398;Laerm;57728;50.448;18.824;2023-06-22T08:47:04;35.12;33.09;54.91;;
67398;Laerm;57728;50.448;18.824;2023-06-22T08:49:06;35.49;33.07;53.52;;
67398;Laerm;57728;50.448;18.824;2023-06-22T08:51:08;38.31;33.11;60.95;;
67398;Laerm;57728;50.448;18.824;2023-06-22T08:53:09;35.09;33.10;43.43;;
67398;Laerm;57728;50.448;18.824;2023-06-22T08:55:10;35.11;33.09;46.29;;
67398;Laerm;57728;50.448;18.824;2023-06-22T08:57:12;34.78;33.13;41.66;;
67398;Laerm;57728;50.448;18.824;2023-06-22T08:59:13;34.55;32.97;40.73;;
67398;Laerm;57728;50.448;18.824;2023-06-22T09:01:14;35.18;32.95;44.24;;
67398;Laerm;57728;50.448;18.824;2023-06-22T09:03:19;35.34;33.07;50.45;;
67398;Laerm;57728;50.448;18.824;2023-06-22T09:05:21;34.55;33.05;38.71;;
67398;Laerm;57728;50.448;18.824;2023-06-22T09:07:25;34.85;33.08;46.43;;
67398;Laerm;57728;50.448;18.824;2023-06-22T09:09:27;34.76;32.92;45.20;;
67398;Laerm;57728;50.448;18.824;2023-06-22T09:11:29;35.99;33.10;51.26;;
67398;Laerm;57728;50.448;18.824;2023-06-22T09:13:32;34.71;33.11;38.52;;
67398;Laerm;57728;50.448;18.824;2023-06-22T09:15:34;34.35;32.81;39.55;;
67398;Laerm;57728;50.448;18.824;2023-06-22T09:17:36;34.25;32.71;41.71;;
67398;Laerm;57728;50.448;18.824;2023-06-22T09:19:37;34.60;32.92;45.03;;
67398;Laerm;57728;50.448;18.824;2023-06-22T09:21:39;34.48;33.02;44.89;;
67398;Laerm;57728;50.448;18.824;2023-06-22T09:23:40;34.55;32.92;43.10;;
67398;Laerm;57728;50.448;18.824;2023-06-22T09:25:42;35.31;32.84;47.54;;
67398;Laerm;57728;50.448;18.824;2023-06-22T09:27:44;36.10;33.31;49.09;;
67398;Laerm;57728;50.448;18.824;2023-06-22T09:29:45;36.14;33.03;49.09;;
67398;Laerm;57728;50.448;18.824;2023-06-22T09:31:46;37.30;33.19;52.59;;
67398;Laerm;57728;50.448;18.824;2023-06-22T09:33:48;34.69;32.99;44.55;;
67398;Laerm;57728;50.448;18.824;2023-06-22T09:35:49;34.42;32.89;44.40;;
67398;Laerm;57728;50.448;18.824;2023-06-22T09:37:51;34.69;33.03;40.96;;
67398;Laerm;57728;50.448;18.824;2023-06-22T09:39:53;35.04;32.94;43.57;;
67398;Laerm;57728;50.448;18.824;2023-06-22T09:41:54;34.65;32.86;46.21;;
67398;Laerm;57728;50.448;18.824;2023-06-22T09:43:55;34.07;32.81;37.36;;
67398;Laerm;57728;50.448;18.824;2023-06-22T09:45:58;33.99;32.65;36.67;;
67398;Laerm;57728;50.448;18.824;2023-06-22T09:47:59;34.06;32.75;41.81;;
67398;Laerm;57728;50.448;18.824;2023-06-22T09:50:00;34.08;32.80;39.84;;
67398;Laerm;57728;50.448;18.824;2023-06-22T09:52:02;34.71;32.90;46.35;;
67398;Laerm;57728;50.448;18.824;2023-06-22T09:54:03;38.50;32.79;55.82;;
67398;Laerm;57728;50.448;18.824;2023-06-22T09:56:05;35.33;32.91;39.35;;
67398;Laerm;57728;50.448;18.824;2023-06-22T09:58:08;34.88;32.82;41.49;;
67398;Laerm;57728;50.448;18.824;2023-06-22T10:00:10;35.37;32.99;50.63;;
67398;Laerm;57728;50.448;18.824;2023-06-22T10:02:14;36.46;32.91;50.73;;
67398;Laerm;57728;50.448;18.824;2023-06-22T10:04:15;34.07;32.75;36.65;;
67398;Laerm;57728;50.448;18.824;2023-06-22T10:06:18;34.38;32.77;43.85;;
67398;Laerm;57728;50.448;18.824;2023-06-22T10:08:19;34.40;32.95;39.81;;
67398;Laerm;57728;50.448;18.824;2023-06-22T10:10:20;34.07;32.71;36.29;;
67398;Laerm;57728;50.448;18.824;2023-06-22T10:12:22;34.28;32.71;41.37;;
67398;Laerm;57728;50.448;18.824;2023-06-22T10:14:23;34.20;32.57;38.16;;
67398;Laerm;57728;50.448;18.824;2023-06-22T10:16:31;33.86;32.54;35.78;;
67398;Laerm;57728;50.448;18.824;2023-06-22T10:18:33;34.06;32.72;43.32;;
67398;Laerm;57728;50.448;18.824;2023-06-22T10:20:34;35.00;32.84;45.93;;
67398;Laerm;57728;50.448;18.824;2023-06-22T10:22:41;33.90;32.71;35.76;;
67398;Laerm;57728;50.448;18.824;2023-06-22T10:24:42;34.13;32.67;38.53;;
67398;Laerm;57728;50.448;18.824;2023-06-22T10:26:45;34.05;32.84;38.10;;
67398;Laerm;57728;50.448;18.824;2023-06-22T10:28:47;34.57;32.60;48.66;;
67398;Laerm;57728;50.448;18.824;2023-06-22T10:30:48;33.98;32.74;38.44;;
67398;Laerm;57728;50.448;18.824;2023-06-22T10:32:49;33.92;32.78;39.48;;
67398;Laerm;57728;50.448;18.824;2023-06-22T10:34:52;33.85;32.67;38.91;;
67398;Laerm;57728;50.448;18.824;2023-06-22T10:36:53;34.89;32.74;51.71;;
67398;Laerm;57728;50.448;18.824;2023-06-22T10:38:55;34.05;32.64;37.57;;
67398;Laerm;57728;50.448;18.824;2023-06-22T10:40:57;35.13;32.67;48.67;;
67398;Laerm;57728;50.448;18.824;2023-06-22T10:42:58;36.12;32.65;49.37;;
67398;Laerm;57728;50.448;18.824;2023-06-22T10:44:59;36.19;32.88;49.99;;
67398;Laerm;57728;50.448;18.824;2023-06-22T10:47:01;36.95;33.00;52.66;;
67398;Laerm;57728;50.448;18.824;2023-06-22T10:49:02;35.96;32.76;53.44;;
67398;Laerm;57728;50.448;18.824;2023-06-22T10:51:03;35.17;32.84;46.50;;
67398;Laerm;57728;50.448;18.824;2023-06-22T10:53:05;35.21;32.82;44.35;;
67398;Laerm;57728;50.448;18.824;2023-06-22T10:55:08;36.01;32.88;48.36;;
67398;Laerm;57728;50.448;18.824;2023-06-22T10:57:09;36.65;32.88;47.59;;
67398;Laerm;57728;50.448;18.824;2023-06-22T10:59:11;37.07;33.16;50.55;;
67398;Laerm;57728;50.448;18.824;2023-06-22T11:01:12;34.87;32.96;42.76;;
67398;Laerm;57728;50.448;18.824;2023-06-22T11:03:16;35.16;32.97;46.20;;
67398;Laerm;57728;50.448;18.824;2023-06-22T11:05:20;34.40;32.79;48.47;;
67398;Laerm;57728;50.448;18.824;2023-06-22T11:07:21;34.20;32.80;38.30;;
67398;Laerm;57728;50.448;18.824;2023-06-22T11:09:22;34.27;32.87;40.08;;
67398;Laerm;57728;50.448;18.824;2023-06-22T11:11:25;34.93;32.62;43.96;;
67398;Laerm;57728;50.448;18.824;2023-06-22T11:13:26;34.61;32.80;44.76;;
67398;Laerm;57728;50.448;18.824;2023-06-22T11:15:30;34.57;32.78;40.97;;
67398;Laerm;57728;50.448;18.824;2023-06-22T11:17:32;34.13;32.76;37.91;;
67398;Laerm;57728;50.448;18.824;2023-06-22T11:19:33;34.18;32.65;39.60;;
67398;Laerm;57728;50.448;18.824;2023-06-22T11:21:34;34.03;32.65;39.21;;